Weather at Seattle Tacoma International Airport

Public forecast

Using degrees Fahrenheit for public forecast. Weather courtesy of forecast.io.

Current aviation weather report (METAR) for Seattle Tacoma International Airport

Retrieved 2021/10/26 07:53 UTC (58 minutes ago):

KSEA 260753Z 17010G19KT 10SM OVC050 10/07 A2970 RMK AO2 SLP062 T01000072 401390094

Aviation forecast (TAF) for Seattle Tacoma International Airport

Forecast is more than 6 hours old.

Retrieved 2021-10-26 00:22 UTC (8 hours ago):

TAF KSEA 252320Z 2600/2706 17017G30KT P6SM -RA OVC040 FM260300 18013G22KT P6SM -SHRA OVC040 FM260700 16008KT P6SM -SHRA SCT025 BKN040 OVC060 FM261800 17011KT P6SM -RA OVC030